Time;durP1;ratioP1;P1;durP2;ratioP2;P2;SDS_P1;SDS_P2;PMS_P1;PMS_P2;Temp;Humidity;BMP_temperature;BMP_pressure;BME280_temperature;BME280_humidity;BME280_pressure;Samples;Min_cycle;Max_cycle;Signal;HPM_P1;HPM_P2
2022/09/15 00:00:52;;;;;;;;;3.67;3.67;;;;;;;;5116977;27;45481;-75
2022/09/15 00:03:18;;;;;;;;;2.00;2.00;;;;;;;;5117505;27;45446;-75
2022/09/15 00:05:44;;;;;;;;;2.00;2.00;;;;;;;;5102925;27;45244;-76
2022/09/15 00:08:09;;;;;;;;;3.00;3.00;;;;;;;;5117797;27;45204;-75
2022/09/15 00:10:34;;;;;;;;;2.00;2.00;;;;;;;;5103669;27;45217;-75
2022/09/15 00:13:00;;;;;;;;;2.33;2.33;;;;;;;;5117261;27;46092;-75
2022/09/15 00:15:25;;;;;;;;;1.67;1.67;;;;;;;;5117557;27;45535;-75
2022/09/15 00:17:51;;;;;;;;;2.67;2.67;;;;;;;;5112782;27;45379;-76
2022/09/15 00:20:17;;;;;;;;;2.00;2.00;;;;;;;;5108023;27;45414;-75
2022/09/15 00:22:43;;;;;;;;;2.00;2.00;;;;;;;;5117081;27;46180;-75
2022/09/15 00:25:09;;;;;;;;;1.00;1.00;;;;;;;;5116810;27;45421;-75
2022/09/15 00:27:34;;;;;;;;;4.00;3.00;;;;;;;;5111445;27;45434;-75
2022/09/15 00:29:59;;;;;;;;;2.67;1.00;;;;;;;;5117363;27;45307;-75
2022/09/15 00:32:24;;;;;;;;;4.00;3.00;;;;;;;;5117007;27;47578;-75
2022/09/15 00:34:50;;;;;;;;;1.67;1.67;;;;;;;;5116456;27;45354;-75
2022/09/15 00:37:16;;;;;;;;;3.00;3.00;;;;;;;;5103363;27;45431;-76
2022/09/15 00:39:41;;;;;;;;;3.00;3.00;;;;;;;;5116933;27;45398;-75
2022/09/15 00:42:06;;;;;;;;;5.67;2.67;;;;;;;;5117020;27;46034;-75
2022/09/15 00:44:34;;;;;;;;;2.00;2.00;;;;;;;;5098566;27;45365;-75
2022/09/15 00:47:01;;;;;;;;;5.67;3.33;;;;;;;;5117160;27;45405;-75
2022/09/15 00:49:31;;;;;;;;;5.00;3.00;;;;;;;;5117075;27;45328;-75
2022/09/15 00:52:07;;;;;;;;;5.33;4.00;;;;;;;;5116443;27;47304;-75
2022/09/15 00:54:45;;;;;;;;;3.33;3.33;;;;;;;;5116592;27;45371;-76
2022/09/15 00:57:14;;;;;;;;;4.00;4.00;;;;;;;;5116746;27;45197;-75
2022/09/15 00:59:40;;;;;;;;;2.67;2.67;;;;;;;;5111179;27;45298;-75
2022/09/15 01:02:14;;;;;;;;;6.00;2.33;;;;;;;;5111654;27;46161;-75
2022/09/15 01:04:40;;;;;;;;;2.00;2.00;;;;;;;;5116777;27;45557;-75
2022/09/15 01:07:08;;;;;;;;;4.00;3.00;;;;;;;;5116599;27;45349;-76
2022/09/15 01:09:37;;;;;;;;;2.67;2.00;;;;;;;;5116666;27;45305;-75
2022/09/15 01:12:02;;;;;;;;;2.00;2.00;;;;;;;;5103108;27;46168;-75
2022/09/15 01:14:27;;;;;;;;;4.67;3.67;;;;;;;;5115161;27;45419;-75
2022/09/15 01:17:11;;;;;;;;;3.33;3.33;;;;;;;;5116983;27;45406;-75
2022/09/15 01:19:55;;;;;;;;;4.00;3.00;;;;;;;;5116626;27;45513;-75
2022/09/15 01:22:39;;;;;;;;;4.33;3.00;;;;;;;;5116556;27;45455;-75
2022/09/15 01:25:25;;;;;;;;;2.00;2.00;;;;;;;;5092226;27;45288;-75
2022/09/15 01:28:08;;;;;;;;;2.67;2.33;;;;;;;;5114411;27;45227;-75
2022/09/15 01:30:38;;;;;;;;;4.00;2.33;;;;;;;;5107754;27;45256;-75
2022/09/15 01:33:11;;;;;;;;;3.67;3.00;;;;;;;;5101496;27;45488;-75
2022/09/15 01:35:48;;;;;;;;;3.67;2.33;;;;;;;;5114324;27;45341;-75
2022/09/15 01:38:32;;;;;;;;;3.00;2.00;;;;;;;;5126378;27;45395;-75
2022/09/15 01:40:57;;;;;;;;;2.00;2.00;;;;;;;;5119264;27;45423;-75
2022/09/15 01:43:24;;;;;;;;;4.00;3.00;;;;;;;;5119590;27;46993;-75
2022/09/15 01:45:50;;;;;;;;;2.67;2.67;;;;;;;;5119803;27;45472;-75
2022/09/15 01:48:17;;;;;;;;;3.00;3.00;;;;;;;;5113099;27;45440;-75
2022/09/15 01:50:48;;;;;;;;;4.67;3.33;;;;;;;;5119673;27;45535;-75
2022/09/15 01:53:14;;;;;;;;;4.00;3.00;;;;;;;;5119281;27;46038;-75
2022/09/15 01:55:51;;;;;;;;;3.00;3.00;;;;;;;;5105011;27;45556;-75
2022/09/15 01:58:16;;;;;;;;;2.00;2.00;;;;;;;;5119581;27;45413;-75
2022/09/15 02:00:44;;;;;;;;;2.00;2.00;;;;;;;;5111469;27;45492;-75
2022/09/15 02:03:16;;;;;;;;;2.33;2.33;;;;;;;;5119159;27;47033;-75
2022/09/15 02:05:43;;;;;;;;;2.00;2.00;;;;;;;;5119252;27;45313;-75
2022/09/15 02:08:22;;;;;;;;;2.33;2.00;;;;;;;;5119340;27;45323;-76
2022/09/15 02:10:50;;;;;;;;;3.00;3.00;;;;;;;;5119658;27;45378;-75
2022/09/15 02:13:19;;;;;;;;;2.33;2.00;;;;;;;;5119309;27;46080;-75
2022/09/15 02:15:47;;;;;;;;;1.33;1.33;;;;;;;;5118980;27;45358;-75
2022/09/15 02:18:16;;;;;;;;;3.33;3.33;;;;;;;;5119499;27;45268;-75
2022/09/15 02:20:58;;;;;;;;;4.00;3.00;;;;;;;;5119234;27;45579;-75
2022/09/15 02:23:27;;;;;;;;;4.33;2.67;;;;;;;;5118825;27;46263;-76
2022/09/15 02:25:55;;;;;;;;;1.00;1.00;;;;;;;;5118925;27;45455;-75
2022/09/15 02:28:25;;;;;;;;;5.00;2.00;;;;;;;;5111411;27;45248;-75
2022/09/15 02:30:53;;;;;;;;;2.00;2.00;;;;;;;;5112966;27;45472;-75
2022/09/15 02:33:20;;;;;;;;;1.00;1.00;;;;;;;;5104184;27;46251;-75
2022/09/15 02:35:45;;;;;;;;;2.33;2.33;;;;;;;;5109425;27;45355;-75
2022/09/15 02:38:11;;;;;;;;;2.00;2.00;;;;;;;;5098410;27;45404;-75
2022/09/15 02:40:39;;;;;;;;;3.00;3.00;;;;;;;;5119201;27;45439;-75
2022/09/15 02:43:08;;;;;;;;;2.33;2.33;;;;;;;;5118816;27;46382;-75
2022/09/15 02:45:33;;;;;;;;;2.00;2.00;;;;;;;;5099058;27;45425;-75
2022/09/15 02:47:58;;;;;;;;;4.67;3.00;;;;;;;;5109555;27;45436;-75
2022/09/15 02:50:27;;;;;;;;;2.00;1.33;;;;;;;;5118273;27;45399;-75
2022/09/15 02:52:53;;;;;;;;;2.67;1.00;;;;;;;;5118754;27;46201;-75
2022/09/15 02:55:18;;;;;;;;;2.00;2.00;;;;;;;;5117181;27;45309;-75
2022/09/15 02:57:43;;;;;;;;;2.33;2.00;;;;;;;;5087072;27;45310;-75
2022/09/15 03:00:12;;;;;;;;;5.33;3.67;;;;;;;;5105114;27;45532;-75
2022/09/15 03:02:49;;;;;;;;;2.00;2.00;;;;;;;;5103069;27;46992;-75
2022/09/15 03:05:14;;;;;;;;;2.00;2.00;;;;;;;;5118116;27;45385;-75
2022/09/15 03:07:40;;;;;;;;;2.33;2.33;;;;;;;;5118419;27;45326;-75
2022/09/15 03:10:06;;;;;;;;;2.00;2.00;;;;;;;;5118598;27;45465;-75
2022/09/15 03:12:35;;;;;;;;;2.00;2.00;;;;;;;;5118064;27;45965;-74
2022/09/15 03:15:00;;;;;;;;;2.00;2.00;;;;;;;;5118354;27;45385;-75
2022/09/15 03:17:26;;;;;;;;;2.67;1.00;;;;;;;;5118586;27;45385;-76
2022/09/15 03:19:51;;;;;;;;;3.67;2.00;;;;;;;;5118067;27;45321;-75
2022/09/15 03:22:16;;;;;;;;;2.67;2.67;;;;;;;;5118367;27;45420;-75
2022/09/15 03:24:42;;;;;;;;;2.33;2.33;;;;;;;;5118075;27;45310;-75
2022/09/15 03:27:08;;;;;;;;;4.00;2.00;;;;;;;;5118097;27;45283;-75
2022/09/15 03:29:33;;;;;;;;;3.00;3.00;;;;;;;;5111674;27;45410;-75
2022/09/15 03:31:58;;;;;;;;;2.00;2.00;;;;;;;;5101399;27;45421;-75
2022/09/15 03:34:23;;;;;;;;;3.00;3.00;;;;;;;;5108612;27;45309;-75
2022/09/15 03:36:49;;;;;;;;;1.00;1.00;;;;;;;;5108683;27;45266;-75
2022/09/15 03:39:14;;;;;;;;;1.00;1.00;;;;;;;;5117931;27;45515;-75
2022/09/15 03:41:39;;;;;;;;;2.67;2.33;;;;;;;;5117649;27;46178;-75
2022/09/15 03:44:04;;;;;;;;;2.00;2.00;;;;;;;;5110849;27;45297;-75
2022/09/15 03:46:29;;;;;;;;;4.00;2.00;;;;;;;;5110511;27;45252;-75
2022/09/15 03:48:55;;;;;;;;;2.00;2.00;;;;;;;;5117528;27;45520;-75
2022/09/15 03:51:21;;;;;;;;;2.00;1.00;;;;;;;;5117779;27;46417;-75
2022/09/15 03:53:46;;;;;;;;;2.00;1.00;;;;;;;;5102922;27;45385;-75
2022/09/15 03:56:17;;;;;;;;;2.00;2.00;;;;;;;;5117999;27;45339;-75
2022/09/15 03:58:42;;;;;;;;;1.67;1.67;;;;;;;;5117889;27;45440;-75
2022/09/15 04:01:08;;;;;;;;;3.67;2.00;;;;;;;;5115904;27;46077;-75
2022/09/15 04:03:33;;;;;;;;;1.67;1.67;;;;;;;;5109223;27;45454;-75
2022/09/15 04:05:58;;;;;;;;;2.67;1.67;;;;;;;;5117756;27;45403;-74
2022/09/15 04:08:24;;;;;;;;;3.00;3.00;;;;;;;;5117679;27;45304;-75
2022/09/15 04:10:49;;;;;;;;;2.67;2.67;;;;;;;;5117355;27;46110;-75
2022/09/15 04:13:14;;;;;;;;;1.00;1.00;;;;;;;;5117321;27;45280;-75
2022/09/15 04:15:39;;;;;;;;;3.00;3.00;;;;;;;;5117435;27;45334;-75
2022/09/15 04:18:05;;;;;;;;;3.00;2.00;;;;;;;;5117320;27;45248;-75
2022/09/15 04:20:30;;;;;;;;;1.00;1.00;;;;;;;;5117348;27;45345;-75
2022/09/15 04:22:55;;;;;;;;;1.33;1.33;;;;;;;;5117229;27;45440;-75
2022/09/15 04:25:21;;;;;;;;;3.00;3.00;;;;;;;;5106553;27;45338;-75
2022/09/15 04:27:46;;;;;;;;;2.00;2.00;;;;;;;;5113584;27;45330;-75
2022/09/15 04:30:11;;;;;;;;;4.00;2.00;;;;;;;;5112858;27;46126;-75
2022/09/15 04:32:36;;;;;;;;;3.67;3.67;;;;;;;;5100217;27;45210;-75
2022/09/15 04:35:03;;;;;;;;;2.00;2.00;;;;;;;;5113346;27;45496;-75
2022/09/15 04:37:29;;;;;;;;;1.33;1.33;;;;;;;;5107732;27;45509;-75
2022/09/15 04:39:55;;;;;;;;;2.00;2.00;;;;;;;;5116662;27;47107;-75
2022/09/15 04:42:20;;;;;;;;;2.00;2.00;;;;;;;;5110433;27;45345;-75
2022/09/15 04:44:46;;;;;;;;;1.33;1.33;;;;;;;;5109279;27;45345;-75
2022/09/15 04:47:11;;;;;;;;;2.00;2.00;;;;;;;;5116360;27;45460;-75
2022/09/15 04:49:36;;;;;;;;;2.00;2.00;;;;;;;;5116848;27;46261;-75
2022/09/15 04:52:02;;;;;;;;;1.67;1.00;;;;;;;;5116932;27;45302;-75
2022/09/15 04:54:27;;;;;;;;;1.00;1.00;;;;;;;;5116894;27;45323;-75
2022/09/15 04:56:52;;;;;;;;;1.00;1.00;;;;;;;;5102692;27;45429;-74
2022/09/15 04:59:18;;;;;;;;;1.33;1.33;;;;;;;;5087760;27;46303;-75
2022/09/15 05:01:44;;;;;;;;;1.33;1.33;;;;;;;;5103883;27;45408;-75
2022/09/15 05:04:09;;;;;;;;;2.00;2.00;;;;;;;;5114549;27;45270;-75
2022/09/15 05:06:34;;;;;;;;;2.00;2.00;;;;;;;;5116876;27;45428;-74
2022/09/15 05:09:00;;;;;;;;;3.00;3.00;;;;;;;;5116409;27;45391;-75
2022/09/15 05:11:27;;;;;;;;;2.00;2.00;;;;;;;;5116645;27;45303;-75
2022/09/15 05:13:52;;;;;;;;;1.33;1.33;;;;;;;;5116909;27;45377;-74
2022/09/15 05:16:19;;;;;;;;;1.00;1.00;;;;;;;;5113593;27;45488;-75
2022/09/15 05:18:45;;;;;;;;;3.00;2.00;;;;;;;;5093565;27;47333;-75
2022/09/15 05:21:12;;;;;;;;;3.00;3.00;;;;;;;;5119835;27;45344;-74
2022/09/15 05:23:37;;;;;;;;;1.33;1.33;;;;;;;;5120281;27;45437;-74
2022/09/15 05:26:05;;;;;;;;;1.00;1.00;;;;;;;;5119882;27;45416;-75
2022/09/15 05:28:34;;;;;;;;;1.00;1.00;;;;;;;;5120062;27;47193;-75
2022/09/15 05:30:59;;;;;;;;;1.33;1.33;;;;;;;;5118068;27;45620;-75
2022/09/15 05:33:24;;;;;;;;;2.00;2.00;;;;;;;;5105580;27;45563;-74
2022/09/15 05:35:53;;;;;;;;;1.67;1.67;;;;;;;;5115906;27;45371;-75
2022/09/15 05:38:19;;;;;;;;;1.00;0.00;;;;;;;;5115163;27;47204;-74
2022/09/15 05:40:45;;;;;;;;;2.00;2.00;;;;;;;;5119895;27;45704;-74
2022/09/15 05:43:10;;;;;;;;;1.00;1.00;;;;;;;;5120011;27;45500;-76
2022/09/15 05:45:35;;;;;;;;;2.00;2.00;;;;;;;;5119661;27;45332;-76
2022/09/15 05:48:01;;;;;;;;;1.00;1.00;;;;;;;;5119774;27;46948;-77
2022/09/15 05:50:26;;;;;;;;;1.33;1.33;;;;;;;;5119646;27;45415;-76
2022/09/15 05:52:51;;;;;;;;;1.33;1.33;;;;;;;;5120131;27;45284;-75
2022/09/15 05:55:17;;;;;;;;;2.00;2.00;;;;;;;;5107348;27;45328;-72
2022/09/15 05:57:42;;;;;;;;;3.00;2.00;;;;;;;;5114495;27;46296;-74
2022/09/15 06:00:07;;;;;;;;;2.00;2.00;;;;;;;;5118092;27;45414;-74
2022/09/15 06:02:33;;;;;;;;;4.33;3.33;;;;;;;;5114712;27;45577;-73
2022/09/15 06:04:58;;;;;;;;;5.33;3.00;;;;;;;;5107631;27;47926;-77
2022/09/15 06:07:23;;;;;;;;;2.00;2.00;;;;;;;;5085280;27;48399;-75
2022/09/15 06:09:48;;;;;;;;;3.33;1.67;;;;;;;;5114147;27;45319;-75
2022/09/15 06:12:14;;;;;;;;;4.00;2.00;;;;;;;;5116538;27;45345;-83
2022/09/15 06:14:41;;;;;;;;;3.33;2.33;;;;;;;;5097933;27;45592;-72
2022/09/15 06:17:07;;;;;;;;;3.67;3.67;;;;;;;;5098334;27;46407;-72
2022/09/15 06:19:32;;;;;;;;;4.00;4.00;;;;;;;;5098324;27;45528;-72
2022/09/15 06:21:57;;;;;;;;;3.00;3.00;;;;;;;;5098660;27;45322;-72
2022/09/15 06:24:23;;;;;;;;;3.67;3.67;;;;;;;;5098322;27;45533;-73
2022/09/15 06:26:48;;;;;;;;;6.00;5.00;;;;;;;;5097629;27;45402;-72
2022/09/15 06:29:13;;;;;;;;;3.00;3.00;;;;;;;;5097748;27;45485;-73
2022/09/15 06:31:39;;;;;;;;;4.33;4.33;;;;;;;;5107664;27;45593;-72
2022/09/15 06:34:05;;;;;;;;;2.33;2.33;;;;;;;;5106975;27;45373;-73
2022/09/15 06:36:30;;;;;;;;;7.67;6.67;;;;;;;;5108963;27;46344;-74
2022/09/15 06:38:56;;;;;;;;;9.67;7.00;;;;;;;;5118879;27;45298;-76
2022/09/15 06:41:21;;;;;;;;;6.00;6.00;;;;;;;;5119212;27;45319;-74
2022/09/15 06:43:48;;;;;;;;;8.00;7.00;;;;;;;;5118663;27;45418;-76
2022/09/15 06:46:31;;;;;;;;;4.00;4.00;;;;;;;;5118867;27;47073;-75
2022/09/15 06:48:56;;;;;;;;;2.00;2.00;;;;;;;;5118765;27;45350;-75
2022/09/15 06:51:23;;;;;;;;;6.00;5.00;;;;;;;;5118858;27;45381;-77
2022/09/15 06:53:48;;;;;;;;;4.00;4.00;;;;;;;;5118581;27;45363;-75
2022/09/15 06:56:15;;;;;;;;;3.67;3.67;;;;;;;;5118540;27;45329;-75
2022/09/15 06:58:41;;;;;;;;;4.00;4.00;;;;;;;;5118344;27;45299;-74
2022/09/15 07:01:11;;;;;;;;;6.00;4.33;;;;;;;;5118781;27;45379;-75
2022/09/15 07:03:37;;;;;;;;;4.00;4.00;;;;;;;;5115625;27;45568;-76
2022/09/15 07:06:03;;;;;;;;;5.00;4.00;;;;;;;;5117906;27;46264;-75
2022/09/15 07:08:28;;;;;;;;;4.33;4.00;;;;;;;;5118417;27;45586;-76
2022/09/15 07:10:54;;;;;;;;;4.67;4.00;;;;;;;;5118580;27;45306;-75
2022/09/15 07:13:19;;;;;;;;;4.00;4.00;;;;;;;;5118180;27;45444;-75
2022/09/15 07:15:51;;;;;;;;;4.67;4.67;;;;;;;;5118048;27;46104;-76
2022/09/15 07:18:16;;;;;;;;;4.33;4.33;;;;;;;;5118573;27;45899;-75
2022/09/15 07:20:42;;;;;;;;;2.67;2.67;;;;;;;;5118294;27;45302;-76
2022/09/15 07:23:07;;;;;;;;;3.33;3.33;;;;;;;;5118256;27;45325;-75
2022/09/15 07:25:33;;;;;;;;;4.00;4.00;;;;;;;;5105658;27;46907;-75
2022/09/15 07:27:58;;;;;;;;;4.33;4.00;;;;;;;;5101263;27;45405;-75
2022/09/15 07:30:23;;;;;;;;;4.00;4.00;;;;;;;;5118303;27;45252;-75
2022/09/15 07:32:48;;;;;;;;;3.00;3.00;;;;;;;;5105476;27;45373;-75
2022/09/15 07:35:14;;;;;;;;;4.33;4.00;;;;;;;;5115552;27;46093;-75
2022/09/15 07:37:39;;;;;;;;;3.00;3.00;;;;;;;;5107568;27;45298;-75
2022/09/15 07:40:04;;;;;;;;;2.00;2.00;;;;;;;;5117431;27;45337;-75
2022/09/15 07:42:31;;;;;;;;;5.00;5.00;;;;;;;;5117648;27;45467;-75
2022/09/15 07:44:56;;;;;;;;;3.00;3.00;;;;;;;;5118033;27;47108;-75
2022/09/15 07:47:22;;;;;;;;;2.67;2.67;;;;;;;;5117818;27;45467;-75
2022/09/15 07:49:47;;;;;;;;;3.67;3.67;;;;;;;;5118170;27;45307;-73
2022/09/15 07:52:12;;;;;;;;;3.00;3.00;;;;;;;;5118007;27;45263;-74
2022/09/15 07:54:37;;;;;;;;;3.67;3.67;;;;;;;;5117783;27;45382;-76
2022/09/15 07:57:05;;;;;;;;;5.67;2.00;;;;;;;;5117354;27;45428;-75
2022/09/15 07:59:30;;;;;;;;;2.00;2.00;;;;;;;;5117880;27;45613;-75
2022/09/15 08:01:55;;;;;;;;;4.00;4.00;;;;;;;;5117825;27;45299;-75
2022/09/15 08:04:20;;;;;;;;;3.33;2.67;;;;;;;;5108175;27;45437;-76
2022/09/15 08:06:46;;;;;;;;;3.33;3.33;;;;;;;;5108985;27;45334;-75
2022/09/15 08:09:16;;;;;;;;;4.00;3.00;;;;;;;;5116790;27;45389;-75
2022/09/15 08:11:41;;;;;;;;;4.00;4.00;;;;;;;;5117752;27;45323;-75
2022/09/15 08:14:07;;;;;;;;;5.00;5.00;;;;;;;;5115282;27;46282;-76
2022/09/15 08:16:32;;;;;;;;;4.00;3.00;;;;;;;;5104880;27;45326;-75
2022/09/15 08:18:57;;;;;;;;;3.00;3.00;;;;;;;;5117702;27;45374;-75
2022/09/15 08:21:23;;;;;;;;;3.67;3.67;;;;;;;;5117363;27;45587;-75
2022/09/15 08:23:54;;;;;;;;;3.67;2.33;;;;;;;;5116845;27;47116;-76
2022/09/15 08:26:19;;;;;;;;;3.33;3.33;;;;;;;;5117171;27;45438;-77
2022/09/15 08:28:44;;;;;;;;;4.00;3.00;;;;;;;;5117414;27;45430;-75
2022/09/15 08:31:11;;;;;;;;;3.67;3.67;;;;;;;;5117326;27;45366;-76
2022/09/15 08:33:36;;;;;;;;;2.67;2.67;;;;;;;;5102530;27;45360;-75
2022/09/15 08:36:03;;;;;;;;;3.00;3.00;;;;;;;;5111436;27;45304;-75
2022/09/15 08:38:28;;;;;;;;;2.00;2.00;;;;;;;;5113155;27;45433;-75
2022/09/15 08:41:17;;;;;;;;;4.33;3.00;;;;;;;;5117440;27;45424;-75
2022/09/15 08:43:50;;;;;;;;;5.33;4.00;;;;;;;;5108437;27;45627;-76
2022/09/15 08:46:18;;;;;;;;;3.67;3.67;;;;;;;;5117319;27;45417;-75
2022/09/15 08:49:09;;;;;;;;;3.00;3.00;;;;;;;;5116705;27;45337;-75
2022/09/15 08:51:45;;;;;;;;;2.67;2.67;;;;;;;;5053441;28;45437;-76
2022/09/15 08:54:14;;;;;;;;;2.00;2.00;;;;;;;;5052769;28;47102;-75
2022/09/15 08:56:40;;;;;;;;;3.67;3.00;;;;;;;;5053170;28;45470;-76
2022/09/15 08:59:08;;;;;;;;;2.67;2.00;;;;;;;;5034679;28;45403;-76
2022/09/15 09:01:43;;;;;;;;;4.33;4.33;;;;;;;;5043740;28;45540;-75
2022/09/15 09:04:27;;;;;;;;;2.00;2.00;;;;;;;;5052752;28;45411;-75
2022/09/15 09:07:10;;;;;;;;;4.00;4.00;;;;;;;;5047153;28;45373;-75
2022/09/15 09:09:58;;;;;;;;;3.33;3.33;;;;;;;;5053342;28;45365;-76
2022/09/15 09:12:24;;;;;;;;;4.33;3.00;;;;;;;;5047425;28;45477;-76
2022/09/15 09:14:51;;;;;;;;;3.67;3.67;;;;;;;;5052987;28;47080;-74
2022/09/15 09:17:19;;;;;;;;;3.00;3.00;;;;;;;;5053285;28;45347;-75
2022/09/15 09:20:00;;;;;;;;;5.00;3.00;;;;;;;;5053153;28;45286;-75
2022/09/15 09:22:30;;;;;;;;;3.67;3.67;;;;;;;;5052652;28;45463;-75
2022/09/15 09:24:56;;;;;;;;;4.67;4.00;;;;;;;;5045991;28;46187;-75
2022/09/15 09:27:25;;;;;;;;;3.00;3.00;;;;;;;;5037233;27;45438;-75
2022/09/15 09:29:57;;;;;;;;;3.00;3.00;;;;;;;;5116039;27;45643;-75
2022/09/15 09:32:24;;;;;;;;;4.00;4.00;;;;;;;;5107921;27;45357;-75
2022/09/15 09:34:56;;;;;;;;;4.00;4.00;;;;;;;;5110459;27;46192;-75
2022/09/15 09:37:22;;;;;;;;;4.33;4.33;;;;;;;;5098789;27;45405;-76
2022/09/15 09:39:47;;;;;;;;;2.67;2.67;;;;;;;;5095912;27;45396;-76
2022/09/15 09:42:14;;;;;;;;;6.00;4.67;;;;;;;;5115471;27;45383;-75
2022/09/15 09:44:39;;;;;;;;;3.33;3.33;;;;;;;;5116287;27;46318;-76
2022/09/15 09:47:05;;;;;;;;;4.00;4.00;;;;;;;;5116079;27;45266;-74
2022/09/15 09:49:34;;;;;;;;;3.00;3.00;;;;;;;;5116459;27;45429;-75
2022/09/15 09:52:02;;;;;;;;;3.00;3.00;;;;;;;;5114153;27;45609;-76
2022/09/15 09:54:30;;;;;;;;;4.33;4.00;;;;;;;;5103556;27;46153;-76
2022/09/15 09:56:58;;;;;;;;;4.00;4.00;;;;;;;;5115975;27;45385;-76
2022/09/15 09:59:30;;;;;;;;;6.00;4.00;;;;;;;;5116280;27;45494;-75
2022/09/15 10:02:11;;;;;;;;;4.00;4.00;;;;;;;;5119076;27;45298;-73
2022/09/15 10:04:39;;;;;;;;;4.00;4.00;;;;;;;;5085788;27;46356;-75
2022/09/15 10:07:05;;;;;;;;;4.00;4.00;;;;;;;;5112642;27;45349;-76
2022/09/15 10:09:30;;;;;;;;;6.00;4.33;;;;;;;;5119650;27;45224;-77
2022/09/15 10:11:57;;;;;;;;;3.33;3.33;;;;;;;;5119447;27;45568;-75
2022/09/15 10:14:30;;;;;;;;;7.00;5.33;;;;;;;;5119006;27;47053;-75
2022/09/15 10:16:57;;;;;;;;;4.00;4.00;;;;;;;;5119377;27;45353;-76
2022/09/15 10:19:22;;;;;;;;;4.33;4.33;;;;;;;;5116001;27;45307;-76
2022/09/15 10:21:48;;;;;;;;;4.00;2.67;;;;;;;;5107850;27;45404;-77
2022/09/15 10:24:42;;;;;;;;;4.00;4.00;;;;;;;;5119196;27;47139;-76
2022/09/15 10:27:15;;;;;;;;;4.00;4.00;;;;;;;;5082915;27;45430;-76
2022/09/15 10:29:41;;;;;;;;;3.00;3.00;;;;;;;;5115217;27;45508;-74
2022/09/15 10:32:14;;;;;;;;;3.00;3.00;;;;;;;;5113141;27;45350;-75
2022/09/15 10:34:39;;;;;;;;;3.00;3.00;;;;;;;;5111404;27;46887;-76
2022/09/15 10:37:07;;;;;;;;;4.33;4.33;;;;;;;;5109238;27;45491;-75
2022/09/15 10:39:44;;;;;;;;;5.00;4.00;;;;;;;;5119338;27;45350;-75
2022/09/15 10:42:09;;;;;;;;;6.00;4.00;;;;;;;;5118988;27;45353;-74
2022/09/15 10:44:50;;;;;;;;;4.00;4.00;;;;;;;;5107921;27;47017;-74
2022/09/15 10:47:27;;;;;;;;;6.00;4.00;;;;;;;;5117477;27;45475;-74
2022/09/15 10:50:07;;;;;;;;;3.67;3.67;;;;;;;;5118496;27;45184;-74
2022/09/15 10:52:38;;;;;;;;;3.67;3.67;;;;;;;;5112342;27;45354;-74
2022/09/15 10:55:21;;;;;;;;;5.00;3.33;;;;;;;;5111267;27;46385;-75
2022/09/15 10:57:49;;;;;;;;;5.00;3.00;;;;;;;;5092808;27;45438;-75
2022/09/15 11:00:17;;;;;;;;;3.00;3.00;;;;;;;;5118598;27;45439;-74
2022/09/15 11:02:42;;;;;;;;;3.00;3.00;;;;;;;;5089872;27;45855;-75
2022/09/15 11:05:16;;;;;;;;;4.00;4.00;;;;;;;;5118117;27;46037;-75
2022/09/15 11:07:53;;;;;;;;;4.00;4.00;;;;;;;;5107211;27;45409;-75
2022/09/15 11:10:24;;;;;;;;;4.33;4.00;;;;;;;;5118741;27;45369;-75
2022/09/15 11:13:01;;;;;;;;;3.67;3.67;;;;;;;;5117842;27;45301;-75
2022/09/15 11:15:32;;;;;;;;;5.33;5.00;;;;;;;;5118486;27;45581;-75
2022/09/15 11:18:06;;;;;;;;;3.67;3.67;;;;;;;;5117780;27;45276;-75
2022/09/15 11:20:51;;;;;;;;;5.00;5.00;;;;;;;;5118312;27;45272;-74
2022/09/15 11:23:16;;;;;;;;;5.00;3.00;;;;;;;;5107101;27;45642;-74
2022/09/15 11:25:51;;;;;;;;;5.67;3.67;;;;;;;;5117562;27;45447;-76
2022/09/15 11:28:16;;;;;;;;;5.33;4.00;;;;;;;;5090310;27;45292;-75
2022/09/15 11:31:02;;;;;;;;;3.33;3.33;;;;;;;;5118333;27;45296;-75
2022/09/15 11:33:31;;;;;;;;;4.00;4.00;;;;;;;;5103668;27;45417;-74
2022/09/15 11:36:02;;;;;;;;;6.00;5.00;;;;;;;;5103997;27;46125;-74
2022/09/15 11:38:47;;;;;;;;;4.00;4.00;;;;;;;;5114074;27;45334;-74
2022/09/15 11:41:39;;;;;;;;;4.00;4.00;;;;;;;;5117732;27;45354;-74
2022/09/15 11:44:19;;;;;;;;;4.67;4.67;;;;;;;;5114996;27;45407;-75
2022/09/15 11:47:11;;;;;;;;;4.00;4.00;;;;;;;;5117483;27;45466;-74
2022/09/15 11:49:42;;;;;;;;;4.00;4.00;;;;;;;;5054090;28;45394;-75
2022/09/15 11:52:17;;;;;;;;;4.33;4.33;;;;;;;;5054175;28;45518;-74
2022/09/15 11:54:49;;;;;;;;;4.67;4.67;;;;;;;;5054166;28;45530;-74
2022/09/15 11:57:22;;;;;;;;;4.00;4.00;;;;;;;;5053238;28;45401;-75
2022/09/15 11:59:56;;;;;;;;;5.33;3.67;;;;;;;;5053865;28;45440;-75
2022/09/15 12:02:29;;;;;;;;;3.33;3.00;;;;;;;;5053399;28;45341;-75
2022/09/15 12:05:10;;;;;;;;;6.33;4.00;;;;;;;;5054356;28;45384;-75
2022/09/15 12:07:42;;;;;;;;;4.00;4.00;;;;;;;;5046606;28;46092;-74
2022/09/15 12:10:19;;;;;;;;;4.00;3.00;;;;;;;;5053917;28;45313;-75
2022/09/15 12:12:45;;;;;;;;;5.33;4.00;;;;;;;;5053913;28;45673;-75
2022/09/15 12:15:16;;;;;;;;;4.33;4.33;;;;;;;;5053812;28;45646;-75
2022/09/15 12:17:55;;;;;;;;;3.00;3.00;;;;;;;;5053232;28;46307;-76
2022/09/15 12:20:24;;;;;;;;;4.00;4.00;;;;;;;;5053754;28;45434;-74
2022/09/15 12:23:01;;;;;;;;;4.67;4.67;;;;;;;;5053380;28;45320;-74
2022/09/15 12:25:26;;;;;;;;;5.33;5.33;;;;;;;;5042536;27;45385;-74
2022/09/15 12:28:10;;;;;;;;;3.33;3.00;;;;;;;;5114121;27;46159;-74
2022/09/15 12:30:39;;;;;;;;;3.67;3.67;;;;;;;;5108166;27;45286;-75
2022/09/15 12:33:25;;;;;;;;;5.33;4.67;;;;;;;;5102691;27;45413;-75
2022/09/15 12:35:50;;;;;;;;;6.00;4.00;;;;;;;;5096252;27;45489;-74
2022/09/15 12:38:15;;;;;;;;;3.00;3.00;;;;;;;;5111372;27;46243;-75
2022/09/15 12:40:41;;;;;;;;;4.00;4.00;;;;;;;;5116967;27;45397;-74
2022/09/15 12:43:12;;;;;;;;;3.00;3.00;;;;;;;;5117194;27;45292;-74
2022/09/15 12:45:38;;;;;;;;;4.00;4.00;;;;;;;;5116741;27;45302;-75
2022/09/15 12:48:12;;;;;;;;;3.67;3.67;;;;;;;;5117053;27;45418;-74
2022/09/15 12:50:39;;;;;;;;;4.00;4.00;;;;;;;;5116776;27;45246;-75
2022/09/15 12:53:13;;;;;;;;;4.00;4.00;;;;;;;;5117098;27;45712;-75
2022/09/15 12:55:47;;;;;;;;;4.00;4.00;;;;;;;;5112916;27;45317;-75
2022/09/15 12:58:17;;;;;;;;;5.00;4.00;;;;;;;;5107349;27;46350;-75
2022/09/15 13:00:43;;;;;;;;;5.67;4.00;;;;;;;;5101612;27;45394;-75
2022/09/15 13:03:28;;;;;;;;;5.67;5.00;;;;;;;;5116586;27;45373;-75
2022/09/15 13:06:11;;;;;;;;;5.00;5.00;;;;;;;;5052810;28;45446;-75
2022/09/15 13:08:36;;;;;;;;;4.00;4.00;;;;;;;;5041178;28;46393;-75
2022/09/15 13:11:01;;;;;;;;;4.00;3.67;;;;;;;;5051416;28;45489;-75
2022/09/15 13:13:29;;;;;;;;;2.33;2.33;;;;;;;;5053206;28;45705;-75
2022/09/15 13:15:56;;;;;;;;;6.67;4.33;;;;;;;;5052862;28;45516;-75
2022/09/15 13:18:22;;;;;;;;;4.33;4.33;;;;;;;;5052789;28;46418;-75
2022/09/15 13:20:51;;;;;;;;;5.00;5.00;;;;;;;;5052774;28;45393;-75
2022/09/15 13:23:22;;;;;;;;;3.33;3.33;;;;;;;;5052956;28;45380;-75
2022/09/15 13:25:47;;;;;;;;;3.00;3.00;;;;;;;;5052940;28;45475;-75
2022/09/15 13:28:13;;;;;;;;;4.00;4.00;;;;;;;;5052319;28;46260;-75
2022/09/15 13:30:39;;;;;;;;;5.00;5.00;;;;;;;;5052963;28;45429;-75
2022/09/15 13:33:22;;;;;;;;;3.00;3.00;;;;;;;;5039142;28;45420;-75
2022/09/15 13:35:50;;;;;;;;;3.33;3.33;;;;;;;;5036445;28;45538;-74
2022/09/15 13:38:34;;;;;;;;;4.00;4.00;;;;;;;;5050883;28;47027;-75
2022/09/15 13:41:18;;;;;;;;;3.00;3.00;;;;;;;;5046021;28;45413;-75
2022/09/15 13:43:47;;;;;;;;;6.00;3.67;;;;;;;;5104071;27;45396;-75
2022/09/15 13:46:31;;;;;;;;;4.67;4.67;;;;;;;;5119949;27;45512;-75
2022/09/15 13:49:11;;;;;;;;;5.33;4.33;;;;;;;;5119674;27;47030;-75
2022/09/15 13:51:38;;;;;;;;;6.00;4.00;;;;;;;;5119905;27;45361;-75
2022/09/15 13:54:04;;;;;;;;;3.00;3.00;;;;;;;;5105096;27;45390;-75
2022/09/15 13:56:34;;;;;;;;;3.67;3.67;;;;;;;;5119761;27;45406;-74
2022/09/15 13:59:01;;;;;;;;;4.33;4.33;;;;;;;;5119210;27;46220;-74
2022/09/15 14:01:28;;;;;;;;;6.00;4.67;;;;;;;;5119610;27;45492;-75
2022/09/15 14:03:57;;;;;;;;;4.67;4.00;;;;;;;;5119460;27;45510;-75
2022/09/15 14:06:32;;;;;;;;;3.00;3.00;;;;;;;;5119691;27;45414;-75
2022/09/15 14:09:05;;;;;;;;;3.00;3.00;;;;;;;;5103175;27;46147;-75
2022/09/15 14:11:31;;;;;;;;;4.00;4.00;;;;;;;;5107646;27;45375;-75
2022/09/15 14:13:58;;;;;;;;;5.00;5.00;;;;;;;;5118705;27;45375;-75
2022/09/15 14:16:23;;;;;;;;;4.00;4.00;;;;;;;;5105535;27;45285;-75
2022/09/15 14:18:49;;;;;;;;;4.00;3.00;;;;;;;;5119382;27;45910;-74
2022/09/15 14:21:18;;;;;;;;;3.00;3.00;;;;;;;;5119161;27;45391;-74
2022/09/15 14:23:48;;;;;;;;;4.00;4.00;;;;;;;;5119472;27;45298;-75
2022/09/15 14:26:14;;;;;;;;;3.33;3.33;;;;;;;;5118980;27;45361;-75
2022/09/15 14:28:40;;;;;;;;;4.00;4.00;;;;;;;;5118615;27;45611;-75
2022/09/15 14:31:06;;;;;;;;;4.00;3.33;;;;;;;;5116726;27;45375;-75
2022/09/15 14:33:35;;;;;;;;;5.67;4.00;;;;;;;;5102361;27;45286;-76
2022/09/15 14:36:01;;;;;;;;;3.33;2.67;;;;;;;;5113835;27;45399;-75
2022/09/15 14:38:26;;;;;;;;;3.00;3.00;;;;;;;;5110361;27;47133;-75
2022/09/15 14:40:53;;;;;;;;;3.00;3.00;;;;;;;;5094273;27;45685;-74
2022/09/15 14:43:26;;;;;;;;;3.00;3.00;;;;;;;;5118714;27;45542;-74
2022/09/15 14:45:51;;;;;;;;;3.33;3.33;;;;;;;;5105313;27;45303;-75
2022/09/15 14:48:16;;;;;;;;;4.00;4.00;;;;;;;;5118939;27;45981;-74
2022/09/15 14:50:47;;;;;;;;;3.00;3.00;;;;;;;;5118825;27;45342;-74
2022/09/15 14:53:15;;;;;;;;;1.67;1.67;;;;;;;;5106754;27;45722;-75